createdAt,value
2017-06-10T00:01:06.590Z,0
2017-06-10T00:02:15.805Z,0
2017-06-10T00:03:24.845Z,0
2017-06-10T00:04:34.060Z,0
2017-06-10T00:05:42.949Z,0
2017-06-10T00:06:52.177Z,0
2017-06-10T00:08:01.075Z,0
2017-06-10T00:09:10.012Z,0
2017-06-10T00:10:18.906Z,0
2017-06-10T00:11:28.118Z,0
2017-06-10T00:12:37.336Z,0
2017-06-10T00:13:46.225Z,0
2017-06-10T00:14:55.218Z,0
2017-06-10T00:16:04.430Z,0
2017-06-10T00:17:13.316Z,0
2017-06-10T00:18:22.527Z,0
2017-06-10T00:19:31.751Z,0
2017-06-10T00:20:42.489Z,0
2017-06-10T00:21:51.377Z,0
2017-06-10T00:23:00.271Z,0
2017-06-10T00:24:09.154Z,0
2017-06-10T00:25:18.045Z,0
2017-06-10T00:26:27.139Z,0
2017-06-10T00:27:36.353Z,0
2017-06-10T00:28:45.603Z,0
2017-06-10T00:29:54.844Z,0
2017-06-10T00:31:04.057Z,0
2017-06-10T00:32:13.094Z,0
2017-06-10T00:33:21.987Z,0
2017-06-10T00:34:30.884Z,0
2017-06-10T00:35:40.418Z,0
2017-06-10T00:36:49.307Z,0
2017-06-10T00:37:58.820Z,0
2017-06-10T00:39:07.735Z,0
2017-06-10T00:40:16.625Z,0
2017-06-10T00:41:25.512Z,0
2017-06-10T00:42:34.403Z,0
2017-06-10T00:43:43.613Z,0
2017-06-10T00:44:52.501Z,0
2017-06-10T00:46:01.387Z,0
2017-06-10T00:47:10.598Z,0
2017-06-10T00:48:19.484Z,0
2017-06-10T00:49:28.429Z,0
2017-06-10T00:50:37.317Z,0
2017-06-10T00:51:46.236Z,0
2017-06-10T00:52:55.444Z,0
2017-06-10T00:54:04.337Z,0
2017-06-10T00:55:13.651Z,0
2017-06-10T00:56:22.539Z,0
2017-06-10T00:57:31.429Z,0
2017-06-10T00:58:40.314Z,0
2017-06-10T00:59:49.853Z,0
2017-06-10T01:00:59.114Z,0
2017-06-10T01:02:07.999Z,0
2017-06-10T01:03:17.209Z,0
2017-06-10T01:04:26.095Z,0
2017-06-10T01:05:35.636Z,0
2017-06-10T01:06:45.130Z,0
2017-06-10T01:07:54.023Z,0
2017-06-10T01:09:02.917Z,0
2017-06-10T01:10:12.455Z,0
2017-06-10T01:11:21.347Z,0
2017-06-10T01:12:30.237Z,0
2017-06-10T01:13:39.128Z,0
2017-06-10T01:14:48.336Z,0
2017-06-10T01:15:57.228Z,0
2017-06-10T01:17:06.126Z,0
2017-06-10T01:18:15.162Z,0
2017-06-10T01:19:24.406Z,0
2017-06-10T01:20:33.294Z,0
2017-06-10T01:21:42.186Z,0
2017-06-10T01:22:51.077Z,0
2017-06-10T01:24:00.696Z,0
2017-06-10T01:25:09.590Z,0
2017-06-10T01:26:18.477Z,0
2017-06-10T01:27:27.366Z,0
2017-06-10T01:28:36.255Z,0
2017-06-10T01:29:45.297Z,0
2017-06-10T01:30:54.188Z,0
2017-06-10T01:32:03.399Z,0
2017-06-10T01:33:12.289Z,0
2017-06-10T01:34:21.174Z,0
2017-06-10T01:35:30.112Z,0
2017-06-10T01:36:39.648Z,0
2017-06-10T01:37:48.538Z,0
2017-06-10T01:38:57.431Z,0
2017-06-10T01:40:06.324Z,0
2017-06-10T01:41:15.265Z,0
2017-06-10T01:42:24.153Z,0
2017-06-10T01:43:33.039Z,0
2017-06-10T01:44:41.927Z,0
2017-06-10T01:45:50.816Z,0
2017-06-10T01:47:00.183Z,0
2017-06-10T01:48:09.397Z,0
2017-06-10T01:49:18.815Z,0
2017-06-10T01:50:27.703Z,0
2017-06-10T01:51:36.624Z,0
2017-06-10T01:52:45.667Z,0
2017-06-10T01:53:54.883Z,0
2017-06-10T01:55:04.426Z,0
2017-06-10T01:56:13.316Z,0
2017-06-10T01:57:22.207Z,0
2017-06-10T01:58:31.195Z,0
2017-06-10T01:59:40.404Z,0
2017-06-10T02:00:49.618Z,0
2017-06-10T02:01:58.512Z,0
2017-06-10T02:03:07.399Z,0
2017-06-10T02:04:16.594Z,0
2017-06-10T02:05:25.483Z,0
2017-06-10T02:06:34.372Z,0
2017-06-10T02:07:43.908Z,0
2017-06-10T02:08:52.794Z,0
2017-06-10T02:10:01.945Z,0
2017-06-10T02:11:10.836Z,0
2017-06-10T02:12:19.720Z,0
2017-06-10T02:13:28.932Z,0
2017-06-10T02:14:38.148Z,0
2017-06-10T02:15:47.855Z,0
2017-06-10T02:16:56.766Z,0
2017-06-10T02:18:05.985Z,0
2017-06-10T02:19:14.874Z,0
2017-06-10T02:20:23.762Z,0
2017-06-10T02:21:32.799Z,0
2017-06-10T02:22:41.682Z,0
2017-06-10T02:23:51.552Z,0
2017-06-10T02:25:00.772Z,0
2017-06-10T02:26:09.663Z,0
2017-06-10T02:27:18.552Z,0
2017-06-10T02:28:27.761Z,0
2017-06-10T02:29:36.650Z,0
2017-06-10T02:30:45.864Z,0
2017-06-10T02:31:54.758Z,0
2017-06-10T02:33:03.647Z,0
2017-06-10T02:34:12.546Z,0
2017-06-10T02:35:21.759Z,0
2017-06-10T02:36:30.973Z,0
2017-06-10T02:37:40.186Z,0
2017-06-10T02:38:49.077Z,0
2017-06-10T02:39:57.968Z,0
2017-06-10T02:41:06.859Z,0
2017-06-10T02:42:15.750Z,0
2017-06-10T02:43:24.965Z,0
2017-06-10T02:44:34.330Z,0
2017-06-10T02:45:43.544Z,0
2017-06-10T02:46:52.431Z,0
2017-06-10T02:48:01.320Z,0
2017-06-10T02:49:10.866Z,0
2017-06-10T02:50:20.230Z,0
2017-06-10T02:51:29.146Z,5
2017-06-10T02:52:38.358Z,5
2017-06-10T02:53:47.569Z,5
2017-06-10T02:54:56.783Z,5
2017-06-10T02:56:05.769Z,5
2017-06-10T02:57:14.658Z,5
2017-06-10T02:58:23.544Z,5
2017-06-10T02:59:32.429Z,5
2017-06-10T03:00:41.642Z,10
2017-06-10T03:01:50.966Z,10
2017-06-10T03:02:59.853Z,10
2017-06-10T03:04:08.741Z,10
2017-06-10T03:05:17.951Z,10
2017-06-10T03:06:26.837Z,10
2017-06-10T03:07:36.796Z,15
2017-06-10T03:08:46.338Z,15
2017-06-10T03:09:55.227Z,15
2017-06-10T03:11:04.130Z,15
2017-06-10T03:12:13.047Z,15
2017-06-10T03:13:21.985Z,20
2017-06-10T03:14:31.201Z,20
2017-06-10T03:15:40.103Z,20
2017-06-10T03:16:49.315Z,20
2017-06-10T03:17:58.527Z,25
2017-06-10T03:19:07.716Z,25
2017-06-10T03:20:16.605Z,25
2017-06-10T03:21:25.495Z,25
2017-06-10T03:22:34.382Z,25
2017-06-10T03:23:43.272Z,30
2017-06-10T03:24:52.533Z,30
2017-06-10T03:26:01.429Z,30
2017-06-10T03:27:10.641Z,30
2017-06-10T03:28:19.532Z,35
2017-06-10T03:29:28.422Z,35
2017-06-10T03:30:37.409Z,35
2017-06-10T03:31:46.294Z,40
2017-06-10T03:32:55.183Z,40
2017-06-10T03:34:04.275Z,40
2017-06-10T03:35:13.164Z,45
2017-06-10T03:36:22.106Z,45
2017-06-10T03:37:31.328Z,45
2017-06-10T03:38:40.224Z,50
2017-06-10T03:39:49.110Z,50
2017-06-10T03:40:58.650Z,50
2017-06-10T03:42:07.640Z,55
2017-06-10T03:43:16.850Z,55
2017-06-10T03:44:25.764Z,55
2017-06-10T03:45:35.305Z,55
2017-06-10T03:46:44.192Z,60
2017-06-10T03:47:53.330Z,60
2017-06-10T03:49:02.216Z,60
2017-06-10T03:50:11.105Z,65
2017-06-10T03:51:20.352Z,65
2017-06-10T03:52:29.241Z,65
2017-06-10T03:53:38.287Z,65
2017-06-10T03:54:47.212Z,70
2017-06-10T03:55:56.101Z,70
2017-06-10T03:57:04.987Z,70
2017-06-10T03:58:13.880Z,70
2017-06-10T03:59:22.866Z,75
2017-06-10T04:00:31.751Z,75
2017-06-10T04:01:40.963Z,75
2017-06-10T04:02:49.866Z,75
2017-06-10T04:03:58.756Z,80
2017-06-10T04:05:08.264Z,80
2017-06-10T04:06:17.159Z,80
2017-06-10T04:07:26.694Z,80
2017-06-10T04:08:35.910Z,85
2017-06-10T04:09:45.122Z,85
2017-06-10T04:10:54.486Z,85
2017-06-10T04:12:03.372Z,85
2017-06-10T04:13:12.588Z,90
2017-06-10T04:14:21.806Z,90
2017-06-10T04:15:31.018Z,90
2017-06-10T04:16:40.479Z,90
2017-06-10T04:17:49.691Z,95
2017-06-10T04:18:58.575Z,95
2017-06-10T04:20:07.463Z,95
2017-06-10T04:21:16.371Z,95
2017-06-10T04:22:25.837Z,95
2017-06-10T04:23:35.380Z,95
2017-06-10T04:24:44.596Z,95
2017-06-10T04:25:53.490Z,95
2017-06-10T04:27:02.706Z,95
2017-06-10T04:28:12.122Z,95
2017-06-10T04:29:21.010Z,100
2017-06-10T04:30:29.898Z,100
2017-06-10T04:31:39.117Z,100
2017-06-10T04:32:48.342Z,100
2017-06-10T04:33:57.379Z,100
2017-06-10T04:35:06.276Z,100
2017-06-10T04:36:15.161Z,105
2017-06-10T04:37:24.370Z,105
2017-06-10T04:38:33.590Z,105
2017-06-10T04:39:42.961Z,105
2017-06-10T04:40:51.901Z,105
2017-06-10T04:42:01.166Z,105
2017-06-10T04:43:10.071Z,110
2017-06-10T04:44:18.964Z,110
2017-06-10T04:45:27.956Z,110
2017-06-10T04:46:36.842Z,110
2017-06-10T04:47:46.094Z,110
2017-06-10T04:48:54.998Z,110
2017-06-10T04:50:03.916Z,110
2017-06-10T04:51:12.956Z,115
2017-06-10T04:52:21.859Z,115
2017-06-10T04:53:30.775Z,115
2017-06-10T04:54:39.690Z,115
2017-06-10T04:55:48.938Z,115
2017-06-10T04:56:58.032Z,115
2017-06-10T04:58:06.927Z,115
2017-06-10T04:59:16.503Z,120
2017-06-10T05:00:25.418Z,120
2017-06-10T05:01:34.634Z,120
2017-06-10T05:02:43.722Z,120
2017-06-10T05:03:52.610Z,120
2017-06-10T05:05:01.821Z,125
2017-06-10T05:06:11.040Z,120
2017-06-10T05:07:19.929Z,120
2017-06-10T05:08:28.919Z,120
2017-06-10T05:09:37.808Z,125
2017-06-10T05:10:46.700Z,125
2017-06-10T05:11:55.916Z,125
2017-06-10T05:13:04.804Z,125
2017-06-10T05:14:13.842Z,125
2017-06-10T05:15:23.054Z,125
2017-06-10T05:16:32.592Z,125
2017-06-10T05:17:41.807Z,130
2017-06-10T05:18:51.020Z,130
2017-06-10T05:20:00.057Z,130
2017-06-10T05:21:09.275Z,130
2017-06-10T05:22:18.167Z,130
2017-06-10T05:23:27.062Z,130
2017-06-10T05:24:36.277Z,130
2017-06-10T05:25:45.513Z,130
2017-06-10T05:26:54.402Z,130
2017-06-10T05:28:03.620Z,130
2017-06-10T05:29:12.838Z,135
2017-06-10T05:30:21.727Z,135
2017-06-10T05:31:30.950Z,135
2017-06-10T05:32:39.876Z,135
2017-06-10T05:33:48.767Z,135
2017-06-10T05:34:57.989Z,135
2017-06-10T05:36:06.884Z,135
2017-06-10T05:37:16.082Z,135
2017-06-10T05:38:24.973Z,135
2017-06-10T05:39:33.864Z,140
2017-06-10T05:40:42.755Z,140
2017-06-10T05:41:51.971Z,140
2017-06-10T05:43:01.662Z,140
2017-06-10T05:44:11.205Z,145
2017-06-10T05:45:20.101Z,140
2017-06-10T05:46:29.641Z,140
2017-06-10T05:47:38.856Z,140
2017-06-10T05:48:47.796Z,145
2017-06-10T05:49:57.014Z,145
2017-06-10T05:51:05.905Z,145
2017-06-10T05:52:14.796Z,145
2017-06-10T05:53:23.684Z,145
2017-06-10T05:54:33.005Z,145
2017-06-10T05:55:41.890Z,145
2017-06-10T05:56:51.106Z,150
2017-06-10T05:58:00.010Z,150
2017-06-10T05:59:08.899Z,145
2017-06-10T06:00:18.263Z,150
2017-06-10T06:01:27.482Z,150
2017-06-10T06:02:36.383Z,150
2017-06-10T06:03:45.282Z,150
2017-06-10T06:04:54.179Z,150
2017-06-10T06:06:03.770Z,150
2017-06-10T06:07:12.662Z,150
2017-06-10T06:08:21.879Z,150
2017-06-10T06:09:31.094Z,150
2017-06-10T06:10:39.981Z,155
2017-06-10T06:11:48.918Z,155
2017-06-10T06:12:57.817Z,155
2017-06-10T06:14:06.704Z,155
2017-06-10T06:15:15.919Z,155
2017-06-10T06:16:24.806Z,155
2017-06-10T06:17:34.173Z,155
2017-06-10T06:18:43.709Z,155
2017-06-10T06:19:52.923Z,160
2017-06-10T06:21:01.819Z,160
2017-06-10T06:22:11.037Z,160
2017-06-10T06:23:20.080Z,160
2017-06-10T06:24:28.978Z,160
2017-06-10T06:25:37.875Z,160
2017-06-10T06:26:46.768Z,160
2017-06-10T06:27:55.995Z,165
2017-06-10T06:29:04.935Z,165
2017-06-10T06:30:13.830Z,165
2017-06-10T06:31:23.037Z,165
2017-06-10T06:32:32.419Z,160
2017-06-10T06:33:41.965Z,160
2017-06-10T06:34:50.977Z,160
2017-06-10T06:36:00.483Z,160
2017-06-10T06:37:09.719Z,160
2017-06-10T06:38:18.719Z,160
2017-06-10T06:39:27.841Z,160
2017-06-10T06:40:36.818Z,160
2017-06-10T06:41:46.401Z,160
2017-06-10T06:42:55.365Z,165
2017-06-10T06:44:04.323Z,180
2017-06-10T06:45:14.048Z,170
2017-06-10T06:46:23.041Z,185
2017-06-10T06:47:32.071Z,180
2017-06-10T06:48:41.006Z,175
2017-06-10T06:49:50.164Z,160
2017-06-10T06:50:59.053Z,150
2017-06-10T06:52:07.953Z,150
2017-06-10T06:53:17.172Z,150
2017-06-10T06:54:26.711Z,165
2017-06-10T06:55:36.699Z,170
2017-06-10T06:56:45.593Z,170
2017-06-10T06:57:54.810Z,180
2017-06-10T06:59:04.027Z,210
2017-06-10T07:00:13.296Z,195
2017-06-10T07:01:22.189Z,205
2017-06-10T07:02:31.408Z,230
2017-06-10T07:03:40.632Z,310
2017-06-10T07:04:49.551Z,350
2017-06-10T07:05:58.593Z,360
2017-06-10T07:07:07.810Z,295
2017-06-10T07:08:17.027Z,225
2017-06-10T07:09:25.912Z,245
2017-06-10T07:10:35.130Z,260
2017-06-10T07:11:44.345Z,180
2017-06-10T07:12:53.239Z,180
2017-06-10T07:14:02.132Z,205
2017-06-10T07:15:11.349Z,250
2017-06-10T07:16:20.569Z,275
2017-06-10T07:17:29.863Z,330
2017-06-10T07:18:38.753Z,315
2017-06-10T07:19:48.300Z,245
2017-06-10T07:20:57.191Z,250
2017-06-10T07:22:06.090Z,205
2017-06-10T07:23:15.405Z,185
2017-06-10T07:24:24.299Z,150
2017-06-10T07:25:33.202Z,155
2017-06-10T07:26:42.428Z,165
2017-06-10T07:27:51.320Z,170
2017-06-10T07:29:00.363Z,215
2017-06-10T07:30:09.264Z,210
2017-06-10T07:31:18.162Z,210
2017-06-10T07:32:27.054Z,205
2017-06-10T07:33:35.962Z,190
2017-06-10T07:34:45.477Z,180
2017-06-10T07:35:55.020Z,185
2017-06-10T07:37:03.910Z,185
2017-06-10T07:38:12.802Z,185
2017-06-10T07:39:21.694Z,180
2017-06-10T07:40:30.738Z,180
2017-06-10T07:41:39.642Z,175
2017-06-10T07:42:48.538Z,185
2017-06-10T07:43:57.765Z,185
2017-06-10T07:45:06.653Z,180
2017-06-10T07:46:15.694Z,185
2017-06-10T07:47:24.911Z,175
2017-06-10T07:48:34.130Z,160
2017-06-10T07:49:43.346Z,185
2017-06-10T07:50:52.268Z,190
2017-06-10T07:52:01.838Z,190
2017-06-10T07:53:10.735Z,225
2017-06-10T07:54:19.633Z,290
2017-06-10T07:55:28.564Z,205
2017-06-10T07:56:37.468Z,205
2017-06-10T07:57:46.512Z,190
2017-06-10T07:58:55.404Z,170
2017-06-10T08:00:04.943Z,210
2017-06-10T08:01:14.164Z,220
2017-06-10T08:02:23.080Z,240
2017-06-10T08:03:32.353Z,295
2017-06-10T08:04:41.299Z,265
2017-06-10T08:05:50.194Z,225
2017-06-10T08:06:59.410Z,205
2017-06-10T08:08:08.303Z,210
2017-06-10T08:09:17.406Z,225
2017-06-10T08:10:26.300Z,240
2017-06-10T08:11:35.196Z,270
2017-06-10T08:12:44.741Z,310
2017-06-10T08:13:53.637Z,260
2017-06-10T08:15:03.011Z,225
2017-06-10T08:16:11.915Z,235
2017-06-10T08:17:20.807Z,265
2017-06-10T08:18:29.700Z,225
2017-06-10T08:19:38.594Z,200
2017-06-10T08:20:47.641Z,215
2017-06-10T08:21:56.538Z,275
2017-06-10T08:23:05.756Z,265
2017-06-10T08:24:14.661Z,245
2017-06-10T08:25:23.552Z,290
2017-06-10T08:26:32.493Z,305
2017-06-10T08:27:41.387Z,280
2017-06-10T08:28:50.282Z,215
2017-06-10T08:29:59.508Z,210
2017-06-10T08:31:09.052Z,205
2017-06-10T08:32:18.244Z,215
2017-06-10T08:33:27.469Z,215
2017-06-10T08:34:36.365Z,225
2017-06-10T08:35:45.909Z,225
2017-06-10T08:36:54.808Z,200
2017-06-10T08:38:03.853Z,220
2017-06-10T08:39:12.752Z,230
2017-06-10T08:40:21.648Z,215
2017-06-10T08:41:30.542Z,245
2017-06-10T08:42:39.760Z,305
2017-06-10T08:43:48.658Z,300
2017-06-10T08:44:57.558Z,345
2017-06-10T08:46:06.779Z,280
2017-06-10T08:47:15.997Z,285
2017-06-10T08:48:24.894Z,295
2017-06-10T08:49:34.113Z,315
2017-06-10T08:50:43.360Z,295
2017-06-10T08:51:52.587Z,245
2017-06-10T08:53:01.805Z,230
2017-06-10T08:54:10.707Z,240
2017-06-10T08:55:19.602Z,245
2017-06-10T08:56:28.500Z,250
2017-06-10T08:57:37.408Z,255
2017-06-10T08:58:46.308Z,285
2017-06-10T08:59:55.851Z,275
2017-06-10T09:01:04.749Z,295
2017-06-10T09:02:13.647Z,305
2017-06-10T09:03:22.544Z,320
2017-06-10T09:04:31.436Z,340
2017-06-10T09:05:40.663Z,355
2017-06-10T09:06:50.229Z,350
2017-06-10T09:07:59.131Z,295
2017-06-10T09:09:08.403Z,295
2017-06-10T09:10:17.315Z,315
2017-06-10T09:11:26.856Z,330
2017-06-10T09:12:35.753Z,365
2017-06-10T09:13:45.298Z,380
2017-06-10T09:14:54.619Z,440
2017-06-10T09:16:03.836Z,370
2017-06-10T09:17:12.731Z,335
2017-06-10T09:18:21.633Z,305
2017-06-10T09:19:30.525Z,280
2017-06-10T09:20:39.794Z,290
2017-06-10T09:21:48.693Z,300
2017-06-10T09:22:57.913Z,350
2017-06-10T09:24:06.812Z,395
2017-06-10T09:25:15.710Z,355
2017-06-10T09:26:24.605Z,345
2017-06-10T09:27:33.507Z,365
2017-06-10T09:28:42.406Z,280
2017-06-10T09:29:51.624Z,280
2017-06-10T09:31:00.517Z,290
2017-06-10T09:32:10.207Z,320
2017-06-10T09:33:19.102Z,365
2017-06-10T09:34:28.325Z,415
2017-06-10T09:35:37.223Z,380
2017-06-10T09:36:46.444Z,375
2017-06-10T09:37:55.696Z,370
2017-06-10T09:39:04.587Z,375
2017-06-10T09:40:13.486Z,390
2017-06-10T09:41:22.390Z,400
2017-06-10T09:42:31.625Z,405
2017-06-10T09:43:40.528Z,440
2017-06-10T09:44:49.425Z,430
2017-06-10T09:45:58.319Z,495
2017-06-10T09:47:07.216Z,540
2017-06-10T09:48:16.436Z,570
2017-06-10T09:49:25.382Z,570
2017-06-10T09:50:34.924Z,595
2017-06-10T09:51:43.818Z,590
2017-06-10T09:52:52.711Z,575
2017-06-10T09:54:01.605Z,580
2017-06-10T09:55:10.549Z,610
2017-06-10T09:56:19.445Z,620
2017-06-10T09:57:28.665Z,595
2017-06-10T09:58:37.885Z,570
2017-06-10T09:59:46.784Z,540
2017-06-10T10:00:55.781Z,500
2017-06-10T10:02:04.680Z,515
2017-06-10T10:03:13.905Z,545
2017-06-10T10:04:23.140Z,695
2017-06-10T10:05:32.036Z,815
2017-06-10T10:06:40.988Z,820
2017-06-10T10:07:49.885Z,755
2017-06-10T10:09:31.155Z,725
2017-06-10T10:10:40.701Z,740
2017-06-10T10:11:51.392Z,775
2017-06-10T10:13:00.770Z,785
2017-06-10T10:14:10.060Z,795
2017-06-10T10:15:19.261Z,775
2017-06-10T10:16:28.219Z,750
2017-06-10T10:17:37.123Z,780
2017-06-10T10:18:46.346Z,830
2017-06-10T10:19:55.566Z,815
2017-06-10T10:21:04.474Z,830
2017-06-10T10:22:13.433Z,835
2017-06-10T10:23:22.457Z,815
2017-06-10T10:24:31.395Z,805
2017-06-10T10:25:40.500Z,775
2017-06-10T10:26:49.754Z,700
2017-06-10T10:27:58.988Z,660
2017-06-10T10:29:08.774Z,615
2017-06-10T10:30:17.683Z,535
2017-06-10T10:31:26.615Z,495
2017-06-10T10:32:35.880Z,505
2017-06-10T10:33:44.805Z,570
2017-06-10T10:34:54.006Z,640
2017-06-10T10:36:02.905Z,700
2017-06-10T10:37:12.125Z,695
2017-06-10T10:38:21.026Z,760
2017-06-10T10:39:29.926Z,730
2017-06-10T10:40:38.873Z,730
2017-06-10T10:41:47.772Z,700
2017-06-10T10:42:56.697Z,635
2017-06-10T10:44:05.594Z,580
2017-06-10T10:45:14.491Z,695
2017-06-10T10:46:24.188Z,780
2017-06-10T10:47:33.097Z,835
2017-06-10T10:48:42.321Z,870
2017-06-10T10:49:51.757Z,865
2017-06-10T10:51:00.980Z,845
2017-06-10T10:52:10.028Z,880
2017-06-10T10:53:18.980Z,925
2017-06-10T10:54:28.208Z,930
2017-06-10T10:55:37.111Z,910
2017-06-10T10:56:46.013Z,840
2017-06-10T10:57:55.059Z,805
2017-06-10T10:59:04.290Z,795
2017-06-10T11:00:13.194Z,790
2017-06-10T11:01:22.094Z,835
2017-06-10T11:02:30.993Z,855
2017-06-10T11:03:39.895Z,815
2017-06-10T11:04:48.792Z,790
2017-06-10T11:05:57.690Z,830
2017-06-10T11:07:07.270Z,855
2017-06-10T11:08:16.496Z,875
2017-06-10T11:09:25.548Z,840
2017-06-10T11:10:34.776Z,865
2017-06-10T11:11:44.004Z,780
2017-06-10T11:12:52.903Z,725
2017-06-10T11:14:01.803Z,805
2017-06-10T11:15:11.357Z,1005
2017-06-10T11:16:20.248Z,1095
2017-06-10T11:17:29.148Z,1060
2017-06-10T11:19:10.092Z,1035
2017-06-10T11:20:19.200Z,1070
2017-06-10T11:21:28.424Z,1050
2017-06-10T11:22:37.762Z,1045
2017-06-10T11:23:46.986Z,1025
2017-06-10T11:24:55.892Z,970
2017-06-10T11:26:04.941Z,960
2017-06-10T11:27:14.170Z,990
2017-06-10T11:28:23.072Z,1015
2017-06-10T11:29:32.312Z,1005
2017-06-10T11:30:41.550Z,995
2017-06-10T11:31:50.604Z,975
2017-06-10T11:32:59.505Z,905
2017-06-10T11:34:08.735Z,880
2017-06-10T11:35:17.638Z,835
2017-06-10T11:36:26.575Z,735
2017-06-10T11:37:35.853Z,655
2017-06-10T11:38:45.081Z,720
2017-06-10T11:39:53.985Z,805
2017-06-10T11:41:02.909Z,935
2017-06-10T11:42:12.052Z,1035
2017-06-10T11:43:21.150Z,1040
2017-06-10T11:44:30.055Z,1080
2017-06-10T11:45:39.278Z,930
2017-06-10T11:46:48.504Z,670
2017-06-10T11:47:57.735Z,655
2017-06-10T11:49:06.784Z,700
2017-06-10T11:50:15.683Z,760
2017-06-10T11:51:24.910Z,825
2017-06-10T11:52:34.523Z,875
2017-06-10T11:53:43.773Z,845
2017-06-10T11:54:53.618Z,800
2017-06-10T11:56:02.518Z,805
2017-06-10T11:57:11.460Z,800
2017-06-10T11:58:20.379Z,760
2017-06-10T11:59:29.278Z,690
2017-06-10T12:00:38.438Z,645
2017-06-10T12:01:47.340Z,660
2017-06-10T12:02:56.563Z,685
2017-06-10T12:04:05.462Z,760
2017-06-10T12:05:14.692Z,940
2017-06-10T12:06:23.738Z,975
2017-06-10T12:07:32.645Z,2160
2017-06-10T12:08:41.878Z,1325
2017-06-10T12:09:51.105Z,1670
2017-06-10T12:11:00.651Z,2685
2017-06-10T12:12:09.705Z,2710
2017-06-10T12:13:18.936Z,2340
2017-06-10T12:14:28.484Z,2260
2017-06-10T12:15:37.388Z,1315
2017-06-10T12:16:46.292Z,1810
2017-06-10T12:17:55.300Z,965
2017-06-10T12:19:04.529Z,1220
2017-06-10T12:20:13.439Z,1710
2017-06-10T12:21:22.666Z,1605
2017-06-10T12:22:31.574Z,2335
2017-06-10T12:23:40.628Z,2260
2017-06-10T12:24:49.852Z,1135
2017-06-10T12:25:59.079Z,1800
2017-06-10T12:27:07.988Z,1800
2017-06-10T12:28:17.219Z,1280
2017-06-10T12:29:26.696Z,1210
2017-06-10T12:30:35.600Z,860
2017-06-10T12:31:44.535Z,1335
2017-06-10T12:32:53.442Z,895
2017-06-10T12:34:02.370Z,895
2017-06-10T12:35:11.426Z,840
2017-06-10T12:36:20.674Z,830
2017-06-10T12:37:29.927Z,945
2017-06-10T12:38:39.155Z,875
2017-06-10T12:39:48.059Z,1065
2017-06-10T12:40:57.067Z,1455
2017-06-10T12:42:06.305Z,1245
2017-06-10T12:43:15.258Z,1295
2017-06-10T12:44:24.187Z,895
2017-06-10T12:45:33.096Z,815
2017-06-10T12:46:42.049Z,865
2017-06-10T12:47:50.953Z,1270
2017-06-10T12:49:00.181Z,1305
2017-06-10T12:50:09.081Z,1250
2017-06-10T12:51:18.358Z,1260
2017-06-10T12:52:27.764Z,1200
2017-06-10T12:53:36.666Z,1105
2017-06-10T12:54:46.229Z,1065
2017-06-10T12:55:55.445Z,970
2017-06-10T12:57:05.544Z,885
2017-06-10T12:58:14.661Z,845
2017-06-10T12:59:23.567Z,800
2017-06-10T13:00:33.114Z,795
2017-06-10T13:01:42.670Z,855
2017-06-10T13:02:51.578Z,930
2017-06-10T13:04:00.956Z,1000
2017-06-10T13:05:10.184Z,990
2017-06-10T13:06:19.087Z,985
2017-06-10T13:07:28.309Z,990
2017-06-10T13:08:37.211Z,995
2017-06-10T13:09:46.810Z,930
2017-06-10T13:10:55.713Z,840
2017-06-10T13:12:04.625Z,800
2017-06-10T13:13:13.857Z,790
2017-06-10T13:14:22.765Z,825
2017-06-10T13:15:32.477Z,855
2017-06-10T13:16:41.378Z,850
2017-06-10T13:17:50.605Z,870
2017-06-10T13:18:59.838Z,870
2017-06-10T13:20:09.392Z,855
2017-06-10T13:21:18.393Z,830
2017-06-10T13:22:27.626Z,880
2017-06-10T13:23:36.853Z,925
2017-06-10T13:24:45.758Z,1040
2017-06-10T13:25:54.673Z,1230
2017-06-10T13:27:03.829Z,1375
2017-06-10T13:28:12.733Z,1335
2017-06-10T13:29:21.640Z,1510
2017-06-10T13:30:30.540Z,1390
2017-06-10T13:31:39.443Z,1520
2017-06-10T13:32:48.645Z,1380
2017-06-10T13:33:57.869Z,1430
2017-06-10T13:35:07.095Z,1215
2017-06-10T13:36:16.001Z,1150
2017-06-10T13:37:25.231Z,1150
2017-06-10T13:38:34.285Z,1110
2017-06-10T13:39:43.522Z,1050
2017-06-10T13:40:52.749Z,1030
2017-06-10T13:42:01.655Z,870
2017-06-10T13:43:10.555Z,810
2017-06-10T13:44:19.605Z,775
2017-06-10T13:45:28.505Z,695
2017-06-10T13:46:37.639Z,635
2017-06-10T13:47:47.225Z,640
2017-06-10T13:48:56.449Z,715
2017-06-10T13:50:05.350Z,710
2017-06-10T13:51:14.577Z,715
2017-06-10T13:52:23.476Z,730
2017-06-10T13:53:32.377Z,740
2017-06-10T13:54:41.603Z,755
2017-06-10T13:55:50.754Z,685
2017-06-10T13:56:59.656Z,575
2017-06-10T13:58:08.556Z,485
2017-06-10T13:59:17.458Z,445
2017-06-10T14:00:26.684Z,390
2017-06-10T14:01:35.743Z,360
2017-06-10T14:02:44.643Z,345
2017-06-10T14:03:53.870Z,340
2017-06-10T14:05:02.771Z,365
2017-06-10T14:06:11.994Z,395
2017-06-10T14:07:21.523Z,420
2017-06-10T14:08:30.425Z,460
2017-06-10T14:09:39.645Z,515
2017-06-10T14:10:49.191Z,565
2017-06-10T14:11:58.094Z,610
2017-06-10T14:13:07.798Z,640
2017-06-10T14:14:17.022Z,680
2017-06-10T14:15:25.922Z,685
2017-06-10T14:16:35.150Z,655
2017-06-10T14:17:44.387Z,665
2017-06-10T14:18:53.379Z,660
2017-06-10T14:20:02.286Z,650
2017-06-10T14:21:11.562Z,655
2017-06-10T14:22:20.461Z,695
2017-06-10T14:23:29.363Z,695
2017-06-10T14:24:38.737Z,630
2017-06-10T14:25:47.959Z,595
2017-06-10T14:26:57.185Z,580
2017-06-10T14:28:06.409Z,585
2017-06-10T14:29:15.310Z,575
2017-06-10T14:30:24.510Z,550
2017-06-10T14:31:33.740Z,530
2017-06-10T14:32:43.289Z,530
2017-06-10T14:33:52.193Z,560
2017-06-10T14:35:01.422Z,615
2017-06-10T14:36:10.628Z,715
2017-06-10T14:37:19.861Z,820
2017-06-10T14:38:28.757Z,905
2017-06-10T14:39:37.653Z,935
2017-06-10T14:40:47.204Z,935
2017-06-10T14:41:56.757Z,890
2017-06-10T14:43:05.656Z,855
2017-06-10T14:44:14.880Z,810
2017-06-10T14:45:23.776Z,780
2017-06-10T14:46:32.677Z,775
2017-06-10T14:47:41.627Z,785
2017-06-10T14:48:50.851Z,795
2017-06-10T14:49:59.751Z,820
2017-06-10T14:51:08.650Z,825
2017-06-10T14:52:17.877Z,780
2017-06-10T14:53:27.481Z,770
2017-06-10T14:54:36.383Z,775
2017-06-10T14:55:45.609Z,775
2017-06-10T14:56:54.833Z,760
2017-06-10T14:58:03.730Z,740
2017-06-10T14:59:13.010Z,705
2017-06-10T15:00:22.237Z,690
2017-06-10T15:01:31.902Z,680
2017-06-10T15:02:41.350Z,680
2017-06-10T15:03:54.477Z,705
2017-06-10T15:05:04.526Z,750
2017-06-10T15:06:14.132Z,755
2017-06-10T15:07:23.322Z,745
2017-06-10T15:08:32.761Z,750
2017-06-10T15:09:41.901Z,730
2017-06-10T15:10:51.293Z,705
2017-06-10T15:12:00.194Z,660
2017-06-10T15:13:09.096Z,625
2017-06-10T15:14:18.373Z,605
2017-06-10T15:15:27.297Z,600
2017-06-10T15:16:36.496Z,610
2017-06-10T15:17:45.403Z,645
2017-06-10T15:18:54.309Z,685
2017-06-10T15:20:03.206Z,730
2017-06-10T15:21:12.102Z,745
2017-06-10T15:22:21.732Z,720
2017-06-10T15:23:31.288Z,690
2017-06-10T15:24:40.513Z,670
2017-06-10T15:25:49.749Z,660
2017-06-10T15:26:58.974Z,650
2017-06-10T15:28:08.021Z,635
2017-06-10T15:29:16.919Z,615
2017-06-10T15:30:25.816Z,595
2017-06-10T15:31:35.041Z,615
2017-06-10T15:32:43.943Z,630
2017-06-10T15:33:53.466Z,655
2017-06-10T15:35:02.695Z,650
2017-06-10T15:36:11.703Z,605
2017-06-10T15:37:21.315Z,570
2017-06-10T15:38:30.215Z,540
2017-06-10T15:39:39.262Z,530
2017-06-10T15:40:48.530Z,535
2017-06-10T15:41:57.452Z,545
2017-06-10T15:43:06.356Z,555
2017-06-10T15:44:15.260Z,610
2017-06-10T15:45:24.536Z,645
2017-06-10T15:46:33.433Z,805
2017-06-10T15:47:42.357Z,765
2017-06-10T15:48:51.915Z,770
2017-06-10T15:50:01.154Z,750
2017-06-10T15:51:10.157Z,730
2017-06-10T15:52:19.382Z,665
2017-06-10T15:53:28.285Z,590
2017-06-10T15:54:37.189Z,550
2017-06-10T15:55:46.090Z,545
2017-06-10T15:56:55.466Z,550
2017-06-10T15:58:04.367Z,555
2017-06-10T15:59:13.265Z,540
2017-06-10T16:00:22.165Z,520
2017-06-10T16:01:31.063Z,520
2017-06-10T16:02:40.586Z,520
2017-06-10T16:03:49.824Z,535
2017-06-10T16:04:59.056Z,545
2017-06-10T16:06:07.961Z,535